sensor_id;sensor_type;location;lat;lon;timestamp;pressure;altitude;pressure_sealevel;temperature
76895;BMP280;65855;42.030;13.078;2023-07-31T00:01:14;93668.91;;;18.73
76895;BMP280;65855;42.030;13.078;2023-07-31T00:03:39;93663.59;;;18.66
76895;BMP280;65855;42.030;13.078;2023-07-31T00:06:05;93658.03;;;18.76
76895;BMP280;65855;42.030;13.078;2023-07-31T00:08:30;93665.69;;;18.76
76895;BMP280;65855;42.030;13.078;2023-07-31T00:10:56;93656.59;;;18.90
76895;BMP280;65855;42.030;13.078;2023-07-31T00:13:21;93655.94;;;18.66
76895;BMP280;65855;42.030;13.078;2023-07-31T00:15:47;93655.94;;;18.66
76895;BMP280;65855;42.030;13.078;2023-07-31T00:18:12;93650.34;;;18.87
76895;BMP280;65855;42.030;13.078;2023-07-31T00:20:38;93647.56;;;18.92
76895;BMP280;65855;42.030;13.078;2023-07-31T00:23:03;93637.53;;;18.60
76895;BMP280;65855;42.030;13.078;2023-07-31T00:25:29;93630.22;;;19.13
76895;BMP280;65855;42.030;13.078;2023-07-31T00:27:54;93639.47;;;18.90
76895;BMP280;65855;42.030;13.078;2023-07-31T00:30:19;93626.81;;;18.82
76895;BMP280;65855;42.030;13.078;2023-07-31T00:32:45;93633.63;;;18.90
76895;BMP280;65855;42.030;13.078;2023-07-31T00:35:10;93625.66;;;18.91
76895;BMP280;65855;42.030;13.078;2023-07-31T00:37:36;93625.13;;;18.86
76895;BMP280;65855;42.030;13.078;2023-07-31T00:40:01;93622.97;;;18.61
76895;BMP280;65855;42.030;13.078;2023-07-31T00:42:28;93617.38;;;18.82
76895;BMP280;65855;42.030;13.078;2023-07-31T00:44:54;93614.38;;;18.80
76895;BMP280;65855;42.030;13.078;2023-07-31T00:47:19;93611.41;;;18.78
76895;BMP280;65855;42.030;13.078;2023-07-31T00:49:45;93612.75;;;18.61
76895;BMP280;65855;42.030;13.078;2023-07-31T00:52:11;93609.38;;;18.45
76895;BMP280;65855;42.030;13.078;2023-07-31T00:54:36;93607.88;;;18.44
76895;BMP280;65855;42.030;13.078;2023-07-31T00:57:02;93608.81;;;18.52
76895;BMP280;65855;42.030;13.078;2023-07-31T00:59:28;93605.72;;;18.58
76895;BMP280;65855;42.030;13.078;2023-07-31T01:01:53;93598.88;;;18.74
76895;BMP280;65855;42.030;13.078;2023-07-31T01:04:18;93590.69;;;18.41
76895;BMP280;65855;42.030;13.078;2023-07-31T01:07:00;93598.75;;;18.43
76895;BMP280;65855;42.030;13.078;2023-07-31T01:12:15;93595.06;;;18.29
76895;BMP280;65855;42.030;13.078;2023-07-31T01:15:06;93593.44;;;18.36
76895;BMP280;65855;42.030;13.078;2023-07-31T01:17:36;93592.03;;;18.51
76895;BMP280;65855;42.030;13.078;2023-07-31T01:20:04;93589.25;;;18.17
76895;BMP280;65855;42.030;13.078;2023-07-31T01:25:26;93580.19;;;18.19
76895;BMP280;65855;42.030;13.078;2023-07-31T01:28:03;93579.78;;;18.17
76895;BMP280;65855;42.030;13.078;2023-07-31T01:30:33;93579.00;;;18.28
76895;BMP280;65855;42.030;13.078;2023-07-31T01:33:01;93577.09;;;18.26
76895;BMP280;65855;42.030;13.078;2023-07-31T01:35:33;93562.25;;;18.43
76895;BMP280;65855;42.030;13.078;2023-07-31T01:37:58;93572.59;;;18.46
76895;BMP280;65855;42.030;13.078;2023-07-31T01:40:24;93570.44;;;18.48
76895;BMP280;65855;42.030;13.078;2023-07-31T01:42:49;93575.34;;;18.41
76895;BMP280;65855;42.030;13.078;2023-07-31T01:45:15;93561.72;;;18.49
76895;BMP280;65855;42.030;13.078;2023-07-31T01:47:40;93560.22;;;18.48
76895;BMP280;65855;42.030;13.078;2023-07-31T01:50:06;93557.72;;;18.36
76895;BMP280;65855;42.030;13.078;2023-07-31T01:52:31;93565.00;;;18.23
76895;BMP280;65855;42.030;13.078;2023-07-31T01:54:57;93564.28;;;18.10
76895;BMP280;65855;42.030;13.078;2023-07-31T01:57:22;93559.50;;;18.09
76895;BMP280;65855;42.030;13.078;2023-07-31T01:59:47;93562.75;;;18.60
76895;BMP280;65855;42.030;13.078;2023-07-31T02:02:13;93554.00;;;18.61
76895;BMP280;65855;42.030;13.078;2023-07-31T02:04:38;93559.06;;;18.46
76895;BMP280;65855;42.030;13.078;2023-07-31T02:07:05;93553.66;;;18.47
76895;BMP280;65855;42.030;13.078;2023-07-31T02:09:30;93554.75;;;18.34
76895;BMP280;65855;42.030;13.078;2023-07-31T02:11:56;93564.59;;;18.09
76895;BMP280;65855;42.030;13.078;2023-07-31T02:14:21;93561.19;;;18.05
76895;BMP280;65855;42.030;13.078;2023-07-31T02:16:47;93553.31;;;18.10
76895;BMP280;65855;42.030;13.078;2023-07-31T02:19:12;93553.78;;;17.65
76895;BMP280;65855;42.030;13.078;2023-07-31T02:21:37;93557.41;;;17.76
76895;BMP280;65855;42.030;13.078;2023-07-31T02:24:03;93556.63;;;17.87
76895;BMP280;65855;42.030;13.078;2023-07-31T02:26:29;93549.31;;;17.97
76895;BMP280;65855;42.030;13.078;2023-07-31T02:28:54;93540.94;;;18.24
76895;BMP280;65855;42.030;13.078;2023-07-31T02:31:19;93543.97;;;18.41
76895;BMP280;65855;42.030;13.078;2023-07-31T02:33:45;93553.09;;;18.15
76895;BMP280;65855;42.030;13.078;2023-07-31T02:36:10;93554.59;;;18.16
76895;BMP280;65855;42.030;13.078;2023-07-31T02:38:36;93552.50;;;17.94
76895;BMP280;65855;42.030;13.078;2023-07-31T02:41:01;93547.06;;;17.84
76895;BMP280;65855;42.030;13.078;2023-07-31T02:43:27;93548.28;;;17.63
76895;BMP280;65855;42.030;13.078;2023-07-31T02:45:52;93541.47;;;17.55
76895;BMP280;65855;42.030;13.078;2023-07-31T02:48:18;93548.28;;;17.51
76895;BMP280;65855;42.030;13.078;2023-07-31T02:50:45;93545.16;;;17.10
76895;BMP280;65855;42.030;13.078;2023-07-31T02:53:10;93541.28;;;17.25
76895;BMP280;65855;42.030;13.078;2023-07-31T02:55:35;93546.59;;;17.32
76895;BMP280;65855;42.030;13.078;2023-07-31T02:58:01;93542.94;;;17.09
76895;BMP280;65855;42.030;13.078;2023-07-31T03:00:27;93542.53;;;16.75
76895;BMP280;65855;42.030;13.078;2023-07-31T03:02:53;93541.06;;;16.42
76895;BMP280;65855;42.030;13.078;2023-07-31T03:05:18;93534.66;;;16.68
76895;BMP280;65855;42.030;13.078;2023-07-31T03:07:43;93532.81;;;16.57
76895;BMP280;65855;42.030;13.078;2023-07-31T03:10:09;93537.50;;;16.55
76895;BMP280;65855;42.030;13.078;2023-07-31T03:12:34;93535.84;;;16.71
76895;BMP280;65855;42.030;13.078;2023-07-31T03:15:00;93539.09;;;16.59
76895;BMP280;65855;42.030;13.078;2023-07-31T03:17:25;93534.28;;;16.46
76895;BMP280;65855;42.030;13.078;2023-07-31T03:19:50;93544.16;;;16.80
76895;BMP280;65855;42.030;13.078;2023-07-31T03:22:16;93537.66;;;16.18
76895;BMP280;65855;42.030;13.078;2023-07-31T03:24:41;93544.72;;;16.53
76895;BMP280;65855;42.030;13.078;2023-07-31T03:30:28;93539.78;;;17.24
76895;BMP280;65855;42.030;13.078;2023-07-31T03:32:53;93544.88;;;17.24
76895;BMP280;65855;42.030;13.078;2023-07-31T03:35:19;93547.28;;;16.65
76895;BMP280;65855;42.030;13.078;2023-07-31T03:37:44;93548.06;;;16.45
76895;BMP280;65855;42.030;13.078;2023-07-31T03:40:10;93550.22;;;16.55
76895;BMP280;65855;42.030;13.078;2023-07-31T03:42:36;93545.22;;;16.27
76895;BMP280;65855;42.030;13.078;2023-07-31T03:45:01;93548.91;;;15.69
76895;BMP280;65855;42.030;13.078;2023-07-31T03:47:27;93547.56;;;15.91
76895;BMP280;65855;42.030;13.078;2023-07-31T03:49:52;93553.41;;;16.12
76895;BMP280;65855;42.030;13.078;2023-07-31T03:52:18;93559.59;;;15.83
76895;BMP280;65855;42.030;13.078;2023-07-31T03:54:43;93561.34;;;15.34
76895;BMP280;65855;42.030;13.078;2023-07-31T03:57:10;93563.63;;;15.55
76895;BMP280;65855;42.030;13.078;2023-07-31T03:59:35;93558.91;;;15.45
76895;BMP280;65855;42.030;13.078;2023-07-31T04:02:01;93562.75;;;15.51
76895;BMP280;65855;42.030;13.078;2023-07-31T04:04:26;93556.13;;;16.07
76895;BMP280;65855;42.030;13.078;2023-07-31T04:06:51;93562.66;;;15.96
76895;BMP280;65855;42.030;13.078;2023-07-31T04:09:17;93563.47;;;15.32
76895;BMP280;65855;42.030;13.078;2023-07-31T04:11:42;93556.06;;;15.47
76895;BMP280;65855;42.030;13.078;2023-07-31T04:14:08;93561.84;;;16.04
76895;BMP280;65855;42.030;13.078;2023-07-31T04:16:33;93558.50;;;15.63
76895;BMP280;65855;42.030;13.078;2023-07-31T04:18:59;93560.13;;;15.68
76895;BMP280;65855;42.030;13.078;2023-07-31T04:21:24;93557.38;;;16.01
76895;BMP280;65855;42.030;13.078;2023-07-31T04:23:49;93547.22;;;16.01
76895;BMP280;65855;42.030;13.078;2023-07-31T04:26:15;93543.50;;;16.19
76895;BMP280;65855;42.030;13.078;2023-07-31T04:28:40;93547.97;;;16.22
76895;BMP280;65855;42.030;13.078;2023-07-31T04:31:06;93553.78;;;15.82
76895;BMP280;65855;42.030;13.078;2023-07-31T04:33:31;93548.00;;;15.93
76895;BMP280;65855;42.030;13.078;2023-07-31T04:35:59;93541.44;;;16.12
76895;BMP280;65855;42.030;13.078;2023-07-31T04:38:24;93555.38;;;15.86
76895;BMP280;65855;42.030;13.078;2023-07-31T04:40:49;93537.63;;;15.98
76895;BMP280;65855;42.030;13.078;2023-07-31T04:43:15;93539.75;;;16.36
76895;BMP280;65855;42.030;13.078;2023-07-31T04:45:45;93539.88;;;16.40
76895;BMP280;65855;42.030;13.078;2023-07-31T04:48:11;93538.47;;;16.62
76895;BMP280;65855;42.030;13.078;2023-07-31T04:50:36;93539.69;;;16.88
76895;BMP280;65855;42.030;13.078;2023-07-31T04:53:02;93554.72;;;16.70
76895;BMP280;65855;42.030;13.078;2023-07-31T04:55:27;93541.66;;;16.71
76895;BMP280;65855;42.030;13.078;2023-07-31T04:57:52;93549.63;;;16.70
76895;BMP280;65855;42.030;13.078;2023-07-31T05:00:18;93549.25;;;16.48
76895;BMP280;65855;42.030;13.078;2023-07-31T05:02:43;93550.13;;;16.32
76895;BMP280;65855;42.030;13.078;2023-07-31T05:05:09;93563.47;;;16.29
76895;BMP280;65855;42.030;13.078;2023-07-31T05:07:34;93563.72;;;16.15
76895;BMP280;65855;42.030;13.078;2023-07-31T05:10:00;93571.94;;;15.92
76895;BMP280;65855;42.030;13.078;2023-07-31T05:12:25;93565.94;;;16.37
76895;BMP280;65855;42.030;13.078;2023-07-31T05:14:50;93569.47;;;16.44
76895;BMP280;65855;42.030;13.078;2023-07-31T05:17:16;93564.38;;;16.76
76895;BMP280;65855;42.030;13.078;2023-07-31T05:19:41;93565.53;;;16.67
76895;BMP280;65855;42.030;13.078;2023-07-31T05:22:07;93569.91;;;17.22
76895;BMP280;65855;42.030;13.078;2023-07-31T05:24:32;93567.50;;;17.49
76895;BMP280;65855;42.030;13.078;2023-07-31T05:26:58;93566.41;;;17.85
76895;BMP280;65855;42.030;13.078;2023-07-31T05:29:24;93564.66;;;18.51
76895;BMP280;65855;42.030;13.078;2023-07-31T05:31:49;93561.53;;;18.42
76895;BMP280;65855;42.030;13.078;2023-07-31T05:34:14;93571.19;;;18.49
76895;BMP280;65855;42.030;13.078;2023-07-31T05:36:40;93564.97;;;18.61
76895;BMP280;65855;42.030;13.078;2023-07-31T05:39:05;93560.31;;;18.78
76895;BMP280;65855;42.030;13.078;2023-07-31T05:41:33;93549.50;;;19.12
76895;BMP280;65855;42.030;13.078;2023-07-31T05:43:59;93550.66;;;19.45
76895;BMP280;65855;42.030;13.078;2023-07-31T05:46:25;93550.63;;;19.90
76895;BMP280;65855;42.030;13.078;2023-07-31T05:48:50;93551.09;;;19.96
76895;BMP280;65855;42.030;13.078;2023-07-31T05:51:15;93546.31;;;20.13
76895;BMP280;65855;42.030;13.078;2023-07-31T05:53:41;93535.13;;;20.54
76895;BMP280;65855;42.030;13.078;2023-07-31T05:56:07;93528.41;;;20.47
76895;BMP280;65855;42.030;13.078;2023-07-31T05:58:32;93533.13;;;20.85
76895;BMP280;65855;42.030;13.078;2023-07-31T06:00:57;93527.41;;;20.73
76895;BMP280;65855;42.030;13.078;2023-07-31T06:03:23;93518.09;;;21.06
76895;BMP280;65855;42.030;13.078;2023-07-31T06:05:48;93518.38;;;21.45
76895;BMP280;65855;42.030;13.078;2023-07-31T06:08:14;93508.72;;;21.86
76895;BMP280;65855;42.030;13.078;2023-07-31T06:10:39;93515.38;;;22.45
76895;BMP280;65855;42.030;13.078;2023-07-31T06:13:05;93513.97;;;22.51
76895;BMP280;65855;42.030;13.078;2023-07-31T06:15:30;93508.22;;;23.00
76895;BMP280;65855;42.030;13.078;2023-07-31T06:17:56;93500.25;;;23.54
76895;BMP280;65855;42.030;13.078;2023-07-31T06:20:21;93507.81;;;23.86
76895;BMP280;65855;42.030;13.078;2023-07-31T06:22:46;93509.56;;;24.42
76895;BMP280;65855;42.030;13.078;2023-07-31T06:25:12;93509.22;;;24.44
76895;BMP280;65855;42.030;13.078;2023-07-31T06:27:37;93496.41;;;24.71
76895;BMP280;65855;42.030;13.078;2023-07-31T06:30:03;93498.72;;;25.17
76895;BMP280;65855;42.030;13.078;2023-07-31T06:32:29;93497.28;;;25.47
76895;BMP280;65855;42.030;13.078;2023-07-31T06:34:55;93500.56;;;25.82
76895;BMP280;65855;42.030;13.078;2023-07-31T06:37:20;93500.78;;;26.42
76895;BMP280;65855;42.030;13.078;2023-07-31T06:39:46;93505.13;;;26.59
76895;BMP280;65855;42.030;13.078;2023-07-31T06:42:11;93500.44;;;26.33
76895;BMP280;65855;42.030;13.078;2023-07-31T06:44:36;93499.66;;;26.47
76895;BMP280;65855;42.030;13.078;2023-07-31T06:47:02;93498.81;;;26.74
76895;BMP280;65855;42.030;13.078;2023-07-31T06:49:28;93500.81;;;27.06
76895;BMP280;65855;42.030;13.078;2023-07-31T06:51:53;93507.28;;;27.41
76895;BMP280;65855;42.030;13.078;2023-07-31T06:54:18;93498.44;;;27.82
76895;BMP280;65855;42.030;13.078;2023-07-31T06:56:44;93491.00;;;27.84
76895;BMP280;65855;42.030;13.078;2023-07-31T06:59:09;93489.69;;;28.05
76895;BMP280;65855;42.030;13.078;2023-07-31T07:01:35;93492.16;;;28.16
76895;BMP280;65855;42.030;13.078;2023-07-31T07:04:00;93499.47;;;28.24
76895;BMP280;65855;42.030;13.078;2023-07-31T07:06:26;93498.31;;;28.28
76895;BMP280;65855;42.030;13.078;2023-07-31T07:08:51;93504.59;;;29.19
76895;BMP280;65855;42.030;13.078;2023-07-31T07:11:16;93503.56;;;29.13
76895;BMP280;65855;42.030;13.078;2023-07-31T07:13:42;93492.31;;;30.13
76895;BMP280;65855;42.030;13.078;2023-07-31T07:16:07;93491.25;;;29.88
76895;BMP280;65855;42.030;13.078;2023-07-31T07:18:33;93493.19;;;29.62
76895;BMP280;65855;42.030;13.078;2023-07-31T07:20:58;93491.38;;;30.04
76895;BMP280;65855;42.030;13.078;2023-07-31T07:23:24;93499.91;;;28.81
76895;BMP280;65855;42.030;13.078;2023-07-31T07:25:49;93486.56;;;29.57
76895;BMP280;65855;42.030;13.078;2023-07-31T07:28:15;93492.38;;;30.29
76895;BMP280;65855;42.030;13.078;2023-07-31T07:30:40;93484.28;;;30.81
76895;BMP280;65855;42.030;13.078;2023-07-31T07:33:06;93493.06;;;31.21
76895;BMP280;65855;42.030;13.078;2023-07-31T07:35:34;93498.03;;;31.32
76895;BMP280;65855;42.030;13.078;2023-07-31T07:38:00;93496.81;;;31.83
76895;BMP280;65855;42.030;13.078;2023-07-31T07:40:26;93500.66;;;31.47
76895;BMP280;65855;42.030;13.078;2023-07-31T07:42:51;93504.84;;;30.18
76895;BMP280;65855;42.030;13.078;2023-07-31T07:45:17;93499.91;;;31.16
76895;BMP280;65855;42.030;13.078;2023-07-31T07:47:42;93503.84;;;31.70
76895;BMP280;65855;42.030;13.078;2023-07-31T07:50:08;93510.78;;;31.61
76895;BMP280;65855;42.030;13.078;2023-07-31T07:52:34;93504.81;;;32.76
76895;BMP280;65855;42.030;13.078;2023-07-31T07:54:59;93505.56;;;33.50
76895;BMP280;65855;42.030;13.078;2023-07-31T07:57:25;93512.78;;;31.22
76895;BMP280;65855;42.030;13.078;2023-07-31T07:59:51;93504.63;;;32.42
76895;BMP280;65855;42.030;13.078;2023-07-31T08:02:16;93506.50;;;32.82
76895;BMP280;65855;42.030;13.078;2023-07-31T08:04:41;93508.81;;;33.78
76895;BMP280;65855;42.030;13.078;2023-07-31T08:07:07;93511.97;;;33.36
76895;BMP280;65855;42.030;13.078;2023-07-31T08:09:32;93516.59;;;33.33
76895;BMP280;65855;42.030;13.078;2023-07-31T08:12:05;93503.50;;;34.36
76895;BMP280;65855;42.030;13.078;2023-07-31T08:14:30;93498.75;;;34.43
76895;BMP280;65855;42.030;13.078;2023-07-31T08:16:57;93502.84;;;34.65
76895;BMP280;65855;42.030;13.078;2023-07-31T08:19:22;93501.38;;;34.64
76895;BMP280;65855;42.030;13.078;2023-07-31T08:21:48;93505.69;;;34.16
76895;BMP280;65855;42.030;13.078;2023-07-31T08:24:14;93507.75;;;32.78
76895;BMP280;65855;42.030;13.078;2023-07-31T08:26:39;93508.38;;;33.80
76895;BMP280;65855;42.030;13.078;2023-07-31T08:29:05;93503.56;;;33.90
76895;BMP280;65855;42.030;13.078;2023-07-31T08:31:30;93512.56;;;34.23
76895;BMP280;65855;42.030;13.078;2023-07-31T08:33:56;93509.94;;;35.07
76895;BMP280;65855;42.030;13.078;2023-07-31T08:36:22;93506.19;;;34.66
76895;BMP280;65855;42.030;13.078;2023-07-31T08:38:47;93512.16;;;35.17
76895;BMP280;65855;42.030;13.078;2023-07-31T08:41:13;93501.84;;;34.93
76895;BMP280;65855;42.030;13.078;2023-07-31T08:43:39;93506.19;;;34.66
76895;BMP280;65855;42.030;13.078;2023-07-31T08:46:04;93501.00;;;33.99
76895;BMP280;65855;42.030;13.078;2023-07-31T08:48:31;93492.66;;;34.46
76895;BMP280;65855;42.030;13.078;2023-07-31T08:50:57;93500.38;;;35.60
76895;BMP280;65855;42.030;13.078;2023-07-31T08:53:22;93492.16;;;35.97
76895;BMP280;65855;42.030;13.078;2023-07-31T08:55:48;93504.25;;;37.32
76895;BMP280;65855;42.030;13.078;2023-07-31T08:58:15;93493.69;;;35.68
76895;BMP280;65855;42.030;13.078;2023-07-31T09:00:41;93494.28;;;35.63
76895;BMP280;65855;42.030;13.078;2023-07-31T09:03:14;93492.75;;;34.55
76895;BMP280;65855;42.030;13.078;2023-07-31T09:05:42;93490.66;;;35.31
76895;BMP280;65855;42.030;13.078;2023-07-31T09:08:09;93493.59;;;36.86
76895;BMP280;65855;42.030;13.078;2023-07-31T09:10:40;93488.09;;;36.49
76895;BMP280;65855;42.030;13.078;2023-07-31T09:13:06;93490.72;;;35.10
76895;BMP280;65855;42.030;13.078;2023-07-31T09:15:32;93478.34;;;33.84
76895;BMP280;65855;42.030;13.078;2023-07-31T09:18:00;93487.28;;;35.30
76895;BMP280;65855;42.030;13.078;2023-07-31T09:20:29;93479.38;;;35.52
76895;BMP280;65855;42.030;13.078;2023-07-31T09:22:55;93474.28;;;35.57
76895;BMP280;65855;42.030;13.078;2023-07-31T09:25:26;93473.03;;;36.05
76895;BMP280;65855;42.030;13.078;2023-07-31T09:27:58;93477.53;;;37.25
76895;BMP280;65855;42.030;13.078;2023-07-31T09:30:24;93472.38;;;37.85
76895;BMP280;65855;42.030;13.078;2023-07-31T09:32:52;93482.41;;;37.50
76895;BMP280;65855;42.030;13.078;2023-07-31T09:35:29;93485.84;;;35.86
76895;BMP280;65855;42.030;13.078;2023-07-31T09:37:59;93480.41;;;36.95
76895;BMP280;65855;42.030;13.078;2023-07-31T09:40:29;93475.66;;;36.50
76895;BMP280;65855;42.030;13.078;2023-07-31T09:43:00;93487.75;;;35.77
76895;BMP280;65855;42.030;13.078;2023-07-31T09:45:26;93484.22;;;35.79
76895;BMP280;65855;42.030;13.078;2023-07-31T09:47:53;93482.53;;;37.14
76895;BMP280;65855;42.030;13.078;2023-07-31T09:50:21;93477.69;;;38.23
76895;BMP280;65855;42.030;13.078;2023-07-31T09:52:47;93480.28;;;35.75
76895;BMP280;65855;42.030;13.078;2023-07-31T09:55:12;93476.66;;;34.95
76895;BMP280;65855;42.030;13.078;2023-07-31T09:57:43;93494.69;;;34.42
76895;BMP280;65855;42.030;13.078;2023-07-31T10:00:10;93490.88;;;34.85
76895;BMP280;65855;42.030;13.078;2023-07-31T10:02:37;93484.22;;;34.93
76895;BMP280;65855;42.030;13.078;2023-07-31T10:05:04;93473.63;;;36.53
76895;BMP280;65855;42.030;13.078;2023-07-31T10:07:31;93485.69;;;34.52
76895;BMP280;65855;42.030;13.078;2023-07-31T10:09:59;93489.44;;;34.42
76895;BMP280;65855;42.030;13.078;2023-07-31T10:12:29;93476.88;;;33.83
76895;BMP280;65855;42.030;13.078;2023-07-31T10:14:55;93484.66;;;35.22
76895;BMP280;65855;42.030;13.078;2023-07-31T10:17:24;93479.31;;;36.43
76895;BMP280;65855;42.030;13.078;2023-07-31T10:19:51;93475.09;;;37.45
76895;BMP280;65855;42.030;13.078;2023-07-31T10:22:16;93484.56;;;36.17
76895;BMP280;65855;42.030;13.078;2023-07-31T10:24:45;93492.00;;;32.93
76895;BMP280;65855;42.030;13.078;2023-07-31T10:27:10;93483.34;;;33.21
76895;BMP280;65855;42.030;13.078;2023-07-31T10:29:38;93478.69;;;33.74
76895;BMP280;65855;42.030;13.078;2023-07-31T10:32:04;93468.09;;;35.42
76895;BMP280;65855;42.030;13.078;2023-07-31T10:34:35;93468.63;;;37.23
76895;BMP280;65855;42.030;13.078;2023-07-31T10:39:57;93465.31;;;33.93
76895;BMP280;65855;42.030;13.078;2023-07-31T10:42:52;93460.16;;;35.63
76895;BMP280;65855;42.030;13.078;2023-07-31T10:45:39;93457.56;;;37.42
76895;BMP280;65855;42.030;13.078;2023-07-31T10:48:22;93447.97;;;36.89
76895;BMP280;65855;42.030;13.078;2023-07-31T10:50:55;93458.94;;;37.83
76895;BMP280;65855;42.030;13.078;2023-07-31T10:53:32;93453.63;;;36.47
76895;BMP280;65855;42.030;13.078;2023-07-31T10:56:10;93454.69;;;36.99
76895;BMP280;65855;42.030;13.078;2023-07-31T10:58:44;93455.25;;;35.35
76895;BMP280;65855;42.030;13.078;2023-07-31T11:01:09;93449.19;;;33.61
76895;BMP280;65855;42.030;13.078;2023-07-31T11:03:56;93441.41;;;32.47
76895;BMP280;65855;42.030;13.078;2023-07-31T11:06:22;93449.94;;;31.20
76895;BMP280;65855;42.030;13.078;2023-07-31T11:08:48;93452.22;;;30.84
76895;BMP280;65855;42.030;13.078;2023-07-31T11:11:17;93446.91;;;32.65
76895;BMP280;65855;42.030;13.078;2023-07-31T11:13:45;93449.81;;;32.67
76895;BMP280;65855;42.030;13.078;2023-07-31T11:16:12;93458.06;;;31.22
76895;BMP280;65855;42.030;13.078;2023-07-31T11:18:39;93448.41;;;32.38
76895;BMP280;65855;42.030;13.078;2023-07-31T11:21:06;93447.44;;;33.91
76895;BMP280;65855;42.030;13.078;2023-07-31T11:23:31;93446.59;;;33.61
76895;BMP280;65855;42.030;13.078;2023-07-31T11:26:00;93435.88;;;33.10
76895;BMP280;65855;42.030;13.078;2023-07-31T11:28:31;93432.31;;;33.95
76895;BMP280;65855;42.030;13.078;2023-07-31T11:30:57;93433.44;;;34.49
76895;BMP280;65855;42.030;13.078;2023-07-31T11:33:23;93434.13;;;34.61
76895;BMP280;65855;42.030;13.078;2023-07-31T11:35:48;93434.09;;;32.95
76895;BMP280;65855;42.030;13.078;2023-07-31T11:38:27;93418.44;;;33.65
76895;BMP280;65855;42.030;13.078;2023-07-31T11:40:53;93427.28;;;32.20
76895;BMP280;65855;42.030;13.078;2023-07-31T11:43:20;93423.66;;;31.43
76895;BMP280;65855;42.030;13.078;2023-07-31T11:45:54;93427.78;;;32.15
76895;BMP280;65855;42.030;13.078;2023-07-31T11:48:25;93417.38;;;32.00
76895;BMP280;65855;42.030;13.078;2023-07-31T11:50:53;93411.47;;;31.40
76895;BMP280;65855;42.030;13.078;2023-07-31T11:53:27;93415.56;;;32.13
76895;BMP280;65855;42.030;13.078;2023-07-31T11:55:55;93420.84;;;35.25
76895;BMP280;65855;42.030;13.078;2023-07-31T11:58:21;93410.59;;;36.77
76895;BMP280;65855;42.030;13.078;2023-07-31T12:00:47;93413.78;;;35.69
76895;BMP280;65855;42.030;13.078;2023-07-31T12:03:13;93415.91;;;36.59
76895;BMP280;65855;42.030;13.078;2023-07-31T12:05:39;93397.19;;;38.22
76895;BMP280;65855;42.030;13.078;2023-07-31T12:08:11;93398.19;;;38.95
76895;BMP280;65855;42.030;13.078;2023-07-31T12:10:37;93402.19;;;37.82
76895;BMP280;65855;42.030;13.078;2023-07-31T12:13:04;93410.09;;;37.82
76895;BMP280;65855;42.030;13.078;2023-07-31T12:15:37;93404.75;;;39.19
76895;BMP280;65855;42.030;13.078;2023-07-31T12:18:13;93404.72;;;38.43
76895;BMP280;65855;42.030;13.078;2023-07-31T12:20:46;93404.69;;;39.14
76895;BMP280;65855;42.030;13.078;2023-07-31T12:23:20;93405.75;;;39.22
76895;BMP280;65855;42.030;13.078;2023-07-31T12:28:37;93413.53;;;37.19
76895;BMP280;65855;42.030;13.078;2023-07-31T12:31:04;93403.22;;;35.25
76895;BMP280;65855;42.030;13.078;2023-07-31T12:33:34;93401.63;;;38.16
76895;BMP280;65855;42.030;13.078;2023-07-31T12:36:08;93403.28;;;38.98
76895;BMP280;65855;42.030;13.078;2023-07-31T12:38:34;93404.16;;;39.63
76895;BMP280;65855;42.030;13.078;2023-07-31T12:40:59;93395.91;;;39.56
76895;BMP280;65855;42.030;13.078;2023-07-31T12:43:25;93394.50;;;39.07
76895;BMP280;65855;42.030;13.078;2023-07-31T12:45:50;93398.56;;;39.56
76895;BMP280;65855;42.030;13.078;2023-07-31T12:48:16;93395.47;;;38.47
76895;BMP280;65855;42.030;13.078;2023-07-31T12:50:41;93391.03;;;38.67
76895;BMP280;65855;42.030;13.078;2023-07-31T12:53:07;93401.50;;;36.95
76895;BMP280;65855;42.030;13.078;2023-07-31T12:55:33;93389.66;;;35.27
76895;BMP280;65855;42.030;13.078;2023-07-31T12:58:02;93388.16;;;33.31
76895;BMP280;65855;42.030;13.078;2023-07-31T13:00:28;93397.97;;;32.29
76895;BMP280;65855;42.030;13.078;2023-07-31T13:02:53;93388.78;;;35.21
76895;BMP280;65855;42.030;13.078;2023-07-31T13:05:20;93392.19;;;36.18
76895;BMP280;65855;42.030;13.078;2023-07-31T13:07:46;93384.69;;;36.52
76895;BMP280;65855;42.030;13.078;2023-07-31T13:10:11;93384.88;;;36.31
76895;BMP280;65855;42.030;13.078;2023-07-31T13:12:37;93382.72;;;39.22
76895;BMP280;65855;42.030;13.078;2023-07-31T13:15:04;93387.97;;;40.15
76895;BMP280;65855;42.030;13.078;2023-07-31T13:17:29;93377.81;;;39.88
76895;BMP280;65855;42.030;13.078;2023-07-31T13:19:55;93380.94;;;40.12
76895;BMP280;65855;42.030;13.078;2023-07-31T13:22:20;93385.66;;;35.52
76895;BMP280;65855;42.030;13.078;2023-07-31T13:24:46;93387.00;;;35.09
76895;BMP280;65855;42.030;13.078;2023-07-31T13:27:11;93374.72;;;37.37
76895;BMP280;65855;42.030;13.078;2023-07-31T13:29:37;93370.47;;;39.97
76895;BMP280;65855;42.030;13.078;2023-07-31T13:32:02;93368.59;;;39.25
76895;BMP280;65855;42.030;13.078;2023-07-31T13:34:28;93366.81;;;40.45
76895;BMP280;65855;42.030;13.078;2023-07-31T13:36:54;93371.47;;;41.11
76895;BMP280;65855;42.030;13.078;2023-07-31T13:39:20;93370.97;;;41.12
76895;BMP280;65855;42.030;13.078;2023-07-31T13:41:46;93369.59;;;40.86
76895;BMP280;65855;42.030;13.078;2023-07-31T13:44:11;93383.31;;;39.12
76895;BMP280;65855;42.030;13.078;2023-07-31T13:46:37;93381.56;;;35.78
76895;BMP280;65855;42.030;13.078;2023-07-31T13:49:02;93377.66;;;36.67
76895;BMP280;65855;42.030;13.078;2023-07-31T13:51:28;93378.03;;;37.15
76895;BMP280;65855;42.030;13.078;2023-07-31T13:53:53;93379.97;;;35.89
76895;BMP280;65855;42.030;13.078;2023-07-31T13:56:19;93369.59;;;37.94
76895;BMP280;65855;42.030;13.078;2023-07-31T13:58:44;93374.72;;;35.45
76895;BMP280;65855;42.030;13.078;2023-07-31T14:01:10;93376.03;;;37.56
76895;BMP280;65855;42.030;13.078;2023-07-31T14:03:35;93378.94;;;38.61
76895;BMP280;65855;42.030;13.078;2023-07-31T14:06:01;93383.25;;;35.28
76895;BMP280;65855;42.030;13.078;2023-07-31T14:08:26;93375.34;;;35.01